Popcorn, Indiana
Current Conditions -  °F | °C
As of 3:53 AM on Sunday 21 Dec 2014 (Local Time) from KBMG Reporting Station
Haze Haze  
Wind Chill: 20°   Ceiling: Unl
Heat Index: 20°   Visibility: 5mi
Dew Point: 19°   Wind: 0mph
Humidity: 96%   Direction: NA
Pressure: 30.28"   Gusts: NA
Location:  38.9483°N, 86.6278°W
Report Text: KBMG 210853Z 00000KT 5SM BR CLR M07/M07 A3028 RMK AO2 SLP263 I1000 I3000 T10671072 50002
Loading
Personal Weather Stations






























Interactive Weather Map New forecast layout! Learn more

10-Day Weather Forecast

Advertisements
Track Severe Weather on mobile